Time;durP1;ratioP1;P1;durP2;ratioP2;P2;SDS_P1;SDS_P2;PMS_P1;PMS_P2;Temp;Humidity;BMP_temperature;BMP_pressure;BME280_temperature;BME280_humidity;BME280_pressure;Samples;Min_cycle;Max_cycle;Signal;HPM_P1;HPM_P2
2021/07/31 00:00:58;;;;;;;4.50;4.10;;;;;;;;;;4974187;28;20035;-62
2021/07/31 00:03:23;;;;;;;4.97;4.50;;;;;;;;;;4974736;28;20046;-62
2021/07/31 00:05:48;;;;;;;5.22;4.65;;;;;;;;;;4974589;28;20114;-63
2021/07/31 00:08:14;;;;;;;5.57;4.43;;;;;;;;;;4973575;28;20364;-62
2021/07/31 00:10:39;;;;;;;4.82;4.40;;;;;;;;;;4975614;28;20062;-62
2021/07/31 00:13:04;;;;;;;7.10;4.93;;;;;;;;;;4975975;28;20423;-62
2021/07/31 00:15:30;;;;;;;5.53;5.03;;;;;;;;;;4973484;28;20296;-62
2021/07/31 00:17:55;;;;;;;5.80;4.88;;;;;;;;;;4971029;28;20049;-62
2021/07/31 00:20:20;;;;;;;4.82;4.43;;;;;;;;;;4974237;28;20090;-62
2021/07/31 00:22:45;;;;;;;4.82;4.43;;;;;;;;;;4973652;28;20047;-62
2021/07/31 00:25:11;;;;;;;6.90;4.20;;;;;;;;;;4974543;28;20275;-62
2021/07/31 00:27:36;;;;;;;7.13;4.45;;;;;;;;;;4974577;28;20162;-62
2021/07/31 00:30:01;;;;;;;5.25;4.50;;;;;;;;;;4974112;28;20030;-62
2021/07/31 00:32:27;;;;;;;6.07;4.95;;;;;;;;;;4975068;28;20035;-62
2021/07/31 00:34:52;;;;;;;4.95;4.05;;;;;;;;;;4973319;28;20448;-62
2021/07/31 00:37:17;;;;;;;5.57;4.70;;;;;;;;;;4974487;28;20138;-62
2021/07/31 00:39:43;;;;;;;5.63;5.07;;;;;;;;;;4973122;28;20100;-62
2021/07/31 00:42:09;;;;;;;4.68;4.32;;;;;;;;;;4973632;28;20324;-62
2021/07/31 00:44:34;;;;;;;4.00;3.67;;;;;;;;;;4973506;28;20030;-62
2021/07/31 00:47:00;;;;;;;4.07;3.78;;;;;;;;;;4974552;28;20079;-62
2021/07/31 00:49:26;;;;;;;3.60;3.30;;;;;;;;;;4973445;28;20027;-62
2021/07/31 00:51:52;;;;;;;4.22;3.92;;;;;;;;;;4973385;28;20038;-62
2021/07/31 00:54:18;;;;;;;3.88;3.58;;;;;;;;;;4971947;28;20027;-62
2021/07/31 00:56:43;;;;;;;4.70;4.38;;;;;;;;;;4973267;28;20033;-64
2021/07/31 00:59:09;;;;;;;3.85;3.55;;;;;;;;;;4973152;28;20093;-62
2021/07/31 01:01:34;;;;;;;5.57;3.35;;;;;;;;;;4973828;28;20030;-62
2021/07/31 01:04:00;;;;;;;4.20;3.90;;;;;;;;;;4973320;28;20030;-62
2021/07/31 01:06:25;;;;;;;4.35;3.95;;;;;;;;;;4974607;28;20022;-62
2021/07/31 01:08:50;;;;;;;5.03;3.30;;;;;;;;;;4973539;28;20446;-62
2021/07/31 01:11:16;;;;;;;3.67;3.38;;;;;;;;;;4973032;28;20026;-62
2021/07/31 01:13:41;;;;;;;3.85;3.33;;;;;;;;;;4973355;28;20027;-62
2021/07/31 01:16:10;;;;;;;3.10;2.90;;;;;;;;;;4973744;28;20041;-62
2021/07/31 01:18:36;;;;;;;3.53;3.22;;;;;;;;;;4973256;28;20038;-62
2021/07/31 01:21:01;;;;;;;3.30;3.10;;;;;;;;;;4972543;28;20060;-62
2021/07/31 01:23:26;;;;;;;3.20;3.00;;;;;;;;;;4973180;28;20047;-62
2021/07/31 01:25:52;;;;;;;3.70;2.90;;;;;;;;;;4972078;28;20387;-62
2021/07/31 01:28:17;;;;;;;4.28;2.92;;;;;;;;;;4973327;28;20034;-62
2021/07/31 01:30:43;;;;;;;3.30;3.00;;;;;;;;;;4971458;28;20058;-62
2021/07/31 01:33:08;;;;;;;4.28;2.80;;;;;;;;;;4973281;28;20356;-62
2021/07/31 01:35:34;;;;;;;2.80;2.60;;;;;;;;;;4972200;28;20481;-62
2021/07/31 01:37:59;;;;;;;3.45;3.15;;;;;;;;;;4973870;28;20375;-62
2021/07/31 01:40:24;;;;;;;3.38;3.17;;;;;;;;;;4971831;28;20022;-62
2021/07/31 01:42:50;;;;;;;2.97;2.78;;;;;;;;;;4973521;28;20467;-62
2021/07/31 01:45:15;;;;;;;3.35;3.05;;;;;;;;;;4972857;28;20045;-62
2021/07/31 01:47:44;;;;;;;3.50;3.05;;;;;;;;;;4973058;28;20022;-62
2021/07/31 01:50:10;;;;;;;3.40;3.20;;;;;;;;;;4972106;28;20019;-62
2021/07/31 01:52:35;;;;;;;3.53;3.15;;;;;;;;;;4972313;28;20027;-62
2021/07/31 01:55:00;;;;;;;3.30;3.10;;;;;;;;;;4972852;28;20066;-62
2021/07/31 01:57:25;;;;;;;6.10;2.92;;;;;;;;;;4972688;28;20363;-62
2021/07/31 01:59:51;;;;;;;3.05;2.85;;;;;;;;;;4972764;28;20038;-62
2021/07/31 02:02:16;;;;;;;3.10;2.90;;;;;;;;;;4972272;28;20053;-62
2021/07/31 02:04:41;;;;;;;2.83;2.63;;;;;;;;;;4972757;28;20043;-62
2021/07/31 02:07:07;;;;;;;2.85;2.65;;;;;;;;;;4971471;28;20034;-62
2021/07/31 02:09:32;;;;;;;2.83;2.55;;;;;;;;;;4972427;28;20133;-62
2021/07/31 02:11:57;;;;;;;3.15;2.70;;;;;;;;;;4970417;28;20308;-62
2021/07/31 02:14:23;;;;;;;2.75;2.55;;;;;;;;;;4973851;28;20351;-63
2021/07/31 02:16:48;;;;;;;2.75;2.55;;;;;;;;;;4971574;28;20030;-63
2021/07/31 02:19:13;;;;;;;2.80;2.60;;;;;;;;;;4972578;28;20042;-63
2021/07/31 02:21:39;;;;;;;2.97;2.70;;;;;;;;;;4970667;28;20343;-63
2021/07/31 02:24:04;;;;;;;2.97;2.78;;;;;;;;;;4973600;28;20019;-63
2021/07/31 02:26:29;;;;;;;3.05;2.85;;;;;;;;;;4970684;28;20275;-63
2021/07/31 02:28:54;;;;;;;3.47;3.28;;;;;;;;;;4971769;28;20027;-63
2021/07/31 02:31:20;;;;;;;3.03;2.83;;;;;;;;;;4971287;28;20022;-63
2021/07/31 02:33:45;;;;;;;3.65;3.05;;;;;;;;;;4973195;28;20027;-63
2021/07/31 02:36:10;;;;;;;2.78;2.58;;;;;;;;;;4972284;28;20038;-63
2021/07/31 02:38:37;;;;;;;3.25;2.95;;;;;;;;;;4972185;28;20049;-63
2021/07/31 02:41:02;;;;;;;3.47;3.00;;;;;;;;;;4971430;28;20122;-63
2021/07/31 02:43:27;;;;;;;9.38;3.97;;;;;;;;;;4971862;28;20081;-63
2021/07/31 02:45:52;;;;;;;3.17;2.97;;;;;;;;;;4971798;28;20041;-65
2021/07/31 02:48:18;;;;;;;3.35;3.15;;;;;;;;;;4971400;28;20085;-63
2021/07/31 02:50:43;;;;;;;3.40;3.00;;;;;;;;;;4971988;28;20102;-62
2021/07/31 02:53:08;;;;;;;3.20;3.00;;;;;;;;;;4971088;28;20038;-63
2021/07/31 02:55:33;;;;;;;3.00;2.80;;;;;;;;;;4972208;28;20027;-62
2021/07/31 02:57:59;;;;;;;3.05;2.85;;;;;;;;;;4971253;28;20073;-62
2021/07/31 03:00:24;;;;;;;3.47;3.28;;;;;;;;;;4972399;28;20034;-63
2021/07/31 03:02:49;;;;;;;2.95;2.83;;;;;;;;;;4969633;28;20065;-62
2021/07/31 03:05:15;;;;;;;3.72;3.42;;;;;;;;;;4975563;28;20027;-63
2021/07/31 03:07:40;;;;;;;4.13;3.72;;;;;;;;;;4970860;28;20035;-63
2021/07/31 03:10:07;;;;;;;4.10;3.80;;;;;;;;;;4969120;28;20161;-63
2021/07/31 03:12:32;;;;;;;3.67;3.38;;;;;;;;;;4970600;28;20034;-63
2021/07/31 03:14:57;;;;;;;4.03;3.72;;;;;;;;;;4970854;28;20062;-63
2021/07/31 03:17:23;;;;;;;4.30;3.90;;;;;;;;;;4970547;28;20033;-63
2021/07/31 03:19:48;;;;;;;4.03;3.67;;;;;;;;;;4972660;28;20066;-63
2021/07/31 03:22:14;;;;;;;4.40;4.05;;;;;;;;;;4971217;28;20109;-63
2021/07/31 03:24:39;;;;;;;3.97;3.65;;;;;;;;;;4972404;28;20030;-63
2021/07/31 03:27:05;;;;;;;4.75;4.35;;;;;;;;;;4970998;28;20054;-63
2021/07/31 03:29:31;;;;;;;4.47;4.07;;;;;;;;;;4970996;28;20048;-63
2021/07/31 03:31:57;;;;;;;4.28;3.97;;;;;;;;;;4971644;28;20027;-63
2021/07/31 03:34:22;;;;;;;3.90;3.60;;;;;;;;;;4971290;28;20049;-63
2021/07/31 03:36:51;;;;;;;4.15;3.85;;;;;;;;;;4971546;28;20039;-63
2021/07/31 03:39:18;;;;;;;4.90;4.07;;;;;;;;;;4970066;28;20453;-63
2021/07/31 03:41:43;;;;;;;6.50;3.85;;;;;;;;;;4971324;28;20137;-64
2021/07/31 03:44:09;;;;;;;3.88;3.47;;;;;;;;;;4970276;28;20347;-63
2021/07/31 03:46:34;;;;;;;4.53;4.13;;;;;;;;;;4971342;28;20204;-62
2021/07/31 03:48:59;;;;;;;4.00;3.70;;;;;;;;;;4969387;28;20022;-63
2021/07/31 03:51:24;;;;;;;3.85;3.60;;;;;;;;;;4970906;28;20142;-63
2021/07/31 03:53:50;;;;;;;4.05;3.75;;;;;;;;;;4970598;28;20034;-63
2021/07/31 03:56:15;;;;;;;4.18;3.88;;;;;;;;;;4968825;28;20035;-63
2021/07/31 03:58:40;;;;;;;3.83;3.40;;;;;;;;;;4970440;28;20035;-62
2021/07/31 04:01:05;;;;;;;4.50;4.10;;;;;;;;;;4970600;28;20231;-62
2021/07/31 04:03:31;;;;;;;4.18;3.78;;;;;;;;;;4971143;28;20027;-62
2021/07/31 04:05:58;;;;;;;3.90;3.60;;;;;;;;;;4970818;28;20023;-63
2021/07/31 04:08:23;;;;;;;5.70;4.03;;;;;;;;;;4968879;28;20126;-63
2021/07/31 04:10:48;;;;;;;4.07;3.53;;;;;;;;;;4971362;28;20122;-63
2021/07/31 04:13:14;;;;;;;4.07;3.70;;;;;;;;;;4969700;28;20027;-63
2021/07/31 04:15:42;;;;;;;4.10;3.90;;;;;;;;;;4970293;28;20027;-62
2021/07/31 04:18:07;;;;;;;3.90;3.60;;;;;;;;;;4971201;28;20038;-63
2021/07/31 04:20:32;;;;;;;3.53;3.33;;;;;;;;;;4970687;28;20049;-63
2021/07/31 04:22:58;;;;;;;3.92;3.63;;;;;;;;;;4967572;28;20077;-63
2021/07/31 04:25:23;;;;;;;4.10;3.80;;;;;;;;;;4970562;28;20376;-63
2021/07/31 04:27:48;;;;;;;4.05;3.65;;;;;;;;;;4970575;28;20470;-63
2021/07/31 04:30:13;;;;;;;3.97;3.67;;;;;;;;;;4972752;28;20031;-63
2021/07/31 04:32:39;;;;;;;3.72;3.42;;;;;;;;;;4974468;28;20380;-63
2021/07/31 04:35:04;;;;;;;4.28;3.97;;;;;;;;;;4975104;28;20053;-63
2021/07/31 04:37:29;;;;;;;4.43;3.72;;;;;;;;;;4973224;28;20102;-63
2021/07/31 04:39:54;;;;;;;4.07;3.75;;;;;;;;;;4974691;28;20356;-63
2021/07/31 04:42:20;;;;;;;4.45;4.05;;;;;;;;;;4974260;28;20034;-63
2021/07/31 04:44:45;;;;;;;3.63;3.33;;;;;;;;;;4974230;28;20030;-62
2021/07/31 04:47:10;;;;;;;4.38;3.28;;;;;;;;;;4973959;28;20026;-63
2021/07/31 04:49:36;;;;;;;3.97;3.67;;;;;;;;;;4974278;28;20290;-63
2021/07/31 04:52:01;;;;;;;4.50;4.20;;;;;;;;;;4973816;28;20030;-63
2021/07/31 04:54:27;;;;;;;3.85;3.55;;;;;;;;;;4973586;28;20031;-63
2021/07/31 04:56:52;;;;;;;3.55;3.25;;;;;;;;;;4972956;28;20027;-63
2021/07/31 04:59:18;;;;;;;3.53;3.22;;;;;;;;;;4972637;28;20383;-63
2021/07/31 05:01:43;;;;;;;4.35;4.05;;;;;;;;;;4974219;28;20035;-63
2021/07/31 05:04:08;;;;;;;3.97;3.53;;;;;;;;;;4973694;28;20023;-63
2021/07/31 05:06:33;;;;;;;3.53;3.22;;;;;;;;;;4973017;28;20283;-63
2021/07/31 05:08:59;;;;;;;3.60;3.30;;;;;;;;;;4974114;28;20023;-64
2021/07/31 05:11:24;;;;;;;4.03;3.35;;;;;;;;;;4972470;28;20105;-63
2021/07/31 05:13:50;;;;;;;3.50;3.20;;;;;;;;;;4973934;28;20259;-63
2021/07/31 05:16:15;;;;;;;4.63;3.80;;;;;;;;;;4972721;28;20038;-63
2021/07/31 05:18:41;;;;;;;3.95;3.65;;;;;;;;;;4973932;28;20041;-66
2021/07/31 05:21:06;;;;;;;5.07;3.97;;;;;;;;;;4971963;28;20027;-63
2021/07/31 05:23:31;;;;;;;3.40;3.20;;;;;;;;;;4971925;28;20061;-63
2021/07/31 05:25:57;;;;;;;4.88;3.25;;;;;;;;;;4972082;28;20318;-64
2021/07/31 05:28:22;;;;;;;3.58;3.28;;;;;;;;;;4973531;28;20303;-63
2021/07/31 05:30:47;;;;;;;3.45;3.15;;;;;;;;;;4972316;28;20383;-64
2021/07/31 05:33:12;;;;;;;4.53;3.38;;;;;;;;;;4974492;28;20035;-63
2021/07/31 05:35:38;;;;;;;3.15;2.85;;;;;;;;;;4973123;28;20027;-63
2021/07/31 05:38:03;;;;;;;3.42;3.13;;;;;;;;;;4974019;28;20042;-64
2021/07/31 05:40:29;;;;;;;3.33;3.13;;;;;;;;;;4973276;28;20073;-63
2021/07/31 05:42:54;;;;;;;3.50;3.20;;;;;;;;;;4972682;28;20057;-63
2021/07/31 05:45:19;;;;;;;3.13;2.70;;;;;;;;;;4973028;28;20058;-63
2021/07/31 05:47:45;;;;;;;2.95;2.75;;;;;;;;;;4973463;28;20268;-65
2021/07/31 05:50:10;;;;;;;3.10;2.90;;;;;;;;;;4973811;28;20034;-62
2021/07/31 05:52:36;;;;;;;3.53;2.92;;;;;;;;;;4972156;28;20373;-64
2021/07/31 05:55:02;;;;;;;3.28;3.08;;;;;;;;;;4972061;28;20105;-64
2021/07/31 05:57:27;;;;;;;4.35;3.70;;;;;;;;;;4972332;28;20288;-63
2021/07/31 05:59:52;;;;;;;3.40;3.20;;;;;;;;;;4972609;28;20444;-63
2021/07/31 06:02:18;;;;;;;2.90;2.70;;;;;;;;;;4971483;28;20420;-63
2021/07/31 06:04:43;;;;;;;3.70;2.70;;;;;;;;;;4973018;28;20026;-63
2021/07/31 06:07:10;;;;;;;3.50;3.20;;;;;;;;;;4972109;28;20022;-63
2021/07/31 06:09:36;;;;;;;3.30;2.95;;;;;;;;;;4972588;28;20026;-63
2021/07/31 06:12:02;;;;;;;3.40;3.20;;;;;;;;;;4970419;28;20038;-64
2021/07/31 06:14:28;;;;;;;3.50;3.20;;;;;;;;;;4973186;28;20042;-63
2021/07/31 06:16:53;;;;;;;3.10;2.90;;;;;;;;;;4971886;28;20030;-63
2021/07/31 06:19:19;;;;;;;3.10;2.90;;;;;;;;;;4973004;28;20140;-64
2021/07/31 06:21:44;;;;;;;3.17;2.97;;;;;;;;;;4971046;28;20031;-64
2021/07/31 06:24:10;;;;;;;3.25;3.05;;;;;;;;;;4973029;28;20019;-63
2021/07/31 06:26:35;;;;;;;3.70;3.47;;;;;;;;;;4972561;28;20023;-64
2021/07/31 06:29:00;;;;;;;2.85;2.65;;;;;;;;;;4970749;28;20066;-63
2021/07/31 06:31:26;;;;;;;3.50;3.25;;;;;;;;;;4970160;28;20065;-63
2021/07/31 06:33:51;;;;;;;3.85;3.10;;;;;;;;;;4970960;28;20109;-63
2021/07/31 06:36:17;;;;;;;3.40;3.10;;;;;;;;;;4972035;28;20327;-63
2021/07/31 06:38:43;;;;;;;3.13;2.92;;;;;;;;;;4972289;28;20414;-63
2021/07/31 06:41:08;;;;;;;3.47;3.17;;;;;;;;;;4971789;28;20034;-63
2021/07/31 06:43:33;;;;;;;7.55;3.72;;;;;;;;;;4971244;28;20672;-62
2021/07/31 06:46:07;;;;;;;3.55;3.25;;;;;;;;;;4972254;28;20626;-63
2021/07/31 06:48:32;;;;;;;3.88;3.47;;;;;;;;;;4972002;28;20046;-63
2021/07/31 06:51:00;;;;;;;3.22;2.92;;;;;;;;;;4971808;28;20022;-62
2021/07/31 06:53:26;;;;;;;2.97;2.78;;;;;;;;;;4971084;28;20054;-63
2021/07/31 06:55:51;;;;;;;3.20;2.90;;;;;;;;;;4972209;28;20046;-62
2021/07/31 06:58:16;;;;;;;3.22;2.90;;;;;;;;;;4970190;28;20041;-61
2021/07/31 07:00:41;;;;;;;4.05;3.65;;;;;;;;;;4970950;28;20288;-62
2021/07/31 07:03:07;;;;;;;3.25;2.95;;;;;;;;;;4970929;28;20034;-62
2021/07/31 07:05:33;;;;;;;5.95;3.08;;;;;;;;;;4972257;28;20058;-62
2021/07/31 07:07:58;;;;;;;4.35;2.78;;;;;;;;;;4971715;28;20030;-62
2021/07/31 07:10:24;;;;;;;3.42;3.20;;;;;;;;;;4970621;28;20355;-62
2021/07/31 07:12:49;;;;;;;2.50;2.40;;;;;;;;;;4971645;28;20030;-62
2021/07/31 07:15:14;;;;;;;2.83;2.63;;;;;;;;;;4971271;28;20357;-61
2021/07/31 07:17:39;;;;;;;3.05;2.85;;;;;;;;;;4971821;28;20031;-61
2021/07/31 07:20:05;;;;;;;3.00;2.80;;;;;;;;;;4971000;28;20116;-61
2021/07/31 07:22:30;;;;;;;3.08;2.88;;;;;;;;;;4972104;28;20197;-61
2021/07/31 07:24:55;;;;;;;3.45;3.25;;;;;;;;;;4970533;28;20430;-61
2021/07/31 07:27:21;;;;;;;3.53;3.10;;;;;;;;;;4971811;28;20034;-61
2021/07/31 07:29:46;;;;;;;2.85;2.65;;;;;;;;;;4970083;28;20360;-61
2021/07/31 07:32:11;;;;;;;3.08;2.88;;;;;;;;;;4972104;28;20031;-61
2021/07/31 07:34:38;;;;;;;2.90;2.70;;;;;;;;;;4970446;28;20033;-61
2021/07/31 07:37:03;;;;;;;3.33;2.80;;;;;;;;;;4970934;28;20250;-61
2021/07/31 07:39:28;;;;;;;3.17;2.97;;;;;;;;;;4970520;28;20050;-61
2021/07/31 07:41:54;;;;;;;3.35;3.05;;;;;;;;;;4970396;28;20360;-61
2021/07/31 07:44:19;;;;;;;3.08;2.88;;;;;;;;;;4970055;28;20343;-62
2021/07/31 07:46:44;;;;;;;3.47;3.28;;;;;;;;;;4970997;28;20023;-62
2021/07/31 07:49:09;;;;;;;2.90;2.72;;;;;;;;;;4969466;28;20506;-60
2021/07/31 07:51:35;;;;;;;3.55;3.25;;;;;;;;;;4972281;28;20101;-62
2021/07/31 07:54:00;;;;;;;3.45;3.25;;;;;;;;;;4971739;28;20026;-62
2021/07/31 07:56:25;;;;;;;2.97;2.78;;;;;;;;;;4970802;28;20154;-62
2021/07/31 07:58:53;;;;;;;3.28;2.97;;;;;;;;;;4970610;28;20033;-62
2021/07/31 08:01:18;;;;;;;3.97;2.90;;;;;;;;;;4968986;28;20030;-62
2021/07/31 08:03:44;;;;;;;3.15;2.90;;;;;;;;;;4971214;28;20426;-62
2021/07/31 08:06:14;;;;;;;3.33;3.03;;;;;;;;;;4973365;28;20030;-62
2021/07/31 08:08:40;;;;;;;3.33;3.00;;;;;;;;;;4975188;28;20026;-62
2021/07/31 08:11:07;;;;;;;3.75;3.55;;;;;;;;;;4974335;28;20080;-62
2021/07/31 08:13:32;;;;;;;2.78;2.58;;;;;;;;;;4975597;28;20042;-62
2021/07/31 08:15:57;;;;;;;3.38;3.17;;;;;;;;;;4972449;28;20455;-62
2021/07/31 08:18:23;;;;;;;3.22;3.03;;;;;;;;;;4975359;28;20053;-62
2021/07/31 08:20:48;;;;;;;3.33;3.13;;;;;;;;;;4973556;28;20026;-62
2021/07/31 08:23:13;;;;;;;3.53;3.22;;;;;;;;;;4974755;28;20155;-62
2021/07/31 08:25:38;;;;;;;3.25;3.05;;;;;;;;;;4973559;28;20034;-62
2021/07/31 08:28:04;;;;;;;4.25;3.95;;;;;;;;;;4975523;28;20033;-62
2021/07/31 08:30:29;;;;;;;4.57;3.67;;;;;;;;;;4974287;28;20387;-62
2021/07/31 08:32:54;;;;;;;3.38;3.17;;;;;;;;;;4973981;28;20853;-62
2021/07/31 08:35:19;;;;;;;4.63;3.78;;;;;;;;;;4973691;28;20081;-62
2021/07/31 08:37:45;;;;;;;3.35;3.05;;;;;;;;;;4971130;28;20027;-62
2021/07/31 08:40:11;;;;;;;3.42;3.22;;;;;;;;;;4973470;28;20066;-63
2021/07/31 08:42:37;;;;;;;3.30;3.00;;;;;;;;;;4972943;28;20506;-62
2021/07/31 08:45:03;;;;;;;3.53;3.33;;;;;;;;;;4974929;28;20038;-63
2021/07/31 08:47:28;;;;;;;3.38;3.17;;;;;;;;;;4974754;28;20098;-65
2021/07/31 08:49:54;;;;;;;3.70;3.40;;;;;;;;;;4974453;28;20507;-60
2021/07/31 08:52:20;;;;;;;3.72;3.50;;;;;;;;;;4973197;28;20081;-62
2021/07/31 08:54:45;;;;;;;3.10;2.90;;;;;;;;;;4975088;28;20081;-63
2021/07/31 08:57:11;;;;;;;3.20;3.00;;;;;;;;;;4972419;28;20376;-63
2021/07/31 08:59:36;;;;;;;3.08;2.88;;;;;;;;;;4975023;28;20050;-62
2021/07/31 09:02:02;;;;;;;3.97;3.67;;;;;;;;;;4973561;28;20050;-62
2021/07/31 09:04:28;;;;;;;6.65;3.30;;;;;;;;;;4973612;28;20027;-62
2021/07/31 09:06:53;;;;;;;3.85;3.60;;;;;;;;;;4972456;28;20617;-63
2021/07/31 09:09:28;;;;;;;3.25;3.03;;;;;;;;;;4974930;28;20046;-63
2021/07/31 09:11:53;;;;;;;;;;;;;;;;;;4988656;28;20387;-62
2021/07/31 09:14:19;;;;;;;3.63;3.33;;;;;;;;;;4974543;28;19933;-63
2021/07/31 09:16:44;;;;;;;2.80;2.60;;;;;;;;;;4972971;28;20066;-63
2021/07/31 09:19:11;;;;;;;3.80;3.53;;;;;;;;;;4973718;28;20454;-63
2021/07/31 09:21:36;;;;;;;3.28;3.03;;;;;;;;;;4973635;28;20707;-62
2021/07/31 09:24:02;;;;;;;3.42;3.22;;;;;;;;;;4972589;28;20145;-63
2021/07/31 09:26:37;;;;;;;3.80;3.60;;;;;;;;;;4974922;28;20127;-62
2021/07/31 09:29:04;;;;;;;4.07;3.78;;;;;;;;;;4972760;28;20269;-62
2021/07/31 09:31:31;;;;;;;4.00;3.70;;;;;;;;;;4973248;28;20061;-63
2021/07/31 09:33:57;;;;;;;3.40;3.20;;;;;;;;;;4972157;28;20062;-62
2021/07/31 09:36:22;;;;;;;4.15;3.85;;;;;;;;;;4972824;28;20025;-63
2021/07/31 09:38:48;;;;;;;3.42;3.22;;;;;;;;;;4973065;28;20347;-62
2021/07/31 09:41:23;;;;;;;3.78;3.47;;;;;;;;;;4973735;28;20605;-62
2021/07/31 09:44:00;;;;;;;3.47;3.28;;;;;;;;;;4972436;28;20109;-62
2021/07/31 09:46:35;;;;;;;4.45;3.70;;;;;;;;;;4972990;28;20022;-63
2021/07/31 09:49:00;;;;;;;3.90;3.60;;;;;;;;;;4972681;28;20022;-63
2021/07/31 09:51:33;;;;;;;4.55;4.25;;;;;;;;;;4974601;28;20042;-63
2021/07/31 09:53:59;;;;;;;4.07;3.78;;;;;;;;;;4972200;28;20057;-62
2021/07/31 09:56:26;;;;;;;4.32;4.13;;;;;;;;;;4973069;28;20366;-63
2021/07/31 09:58:51;;;;;;;4.18;3.88;;;;;;;;;;4972151;28;20126;-62
2021/07/31 10:01:17;;;;;;;4.38;4.07;;;;;;;;;;4973599;28;20109;-63
2021/07/31 10:03:42;;;;;;;5.43;4.93;;;;;;;;;;4971975;28;20117;-63
2021/07/31 10:06:08;;;;;;;4.70;4.30;;;;;;;;;;4972702;28;20301;-63
2021/07/31 10:08:35;;;;;;;4.43;4.03;;;;;;;;;;4972201;28;20034;-63
2021/07/31 10:11:01;;;;;;;4.90;4.50;;;;;;;;;;4972561;28;20025;-63
2021/07/31 10:13:28;;;;;;;5.55;4.38;;;;;;;;;;4971951;28;20553;-62
2021/07/31 10:15:53;;;;;;;5.38;4.40;;;;;;;;;;4972752;28;20034;-62
2021/07/31 10:18:22;;;;;;;4.35;4.05;;;;;;;;;;4971636;28;20030;-63
2021/07/31 10:20:48;;;;;;;4.75;4.45;;;;;;;;;;4971372;28;20317;-63
2021/07/31 10:23:33;;;;;;;4.90;4.50;;;;;;;;;;4972237;28;20317;-63
2021/07/31 10:26:08;;;;;;;4.63;4.35;;;;;;;;;;4973305;28;20038;-62
2021/07/31 10:28:33;;;;;;;5.53;5.03;;;;;;;;;;4970534;28;20324;-62
2021/07/31 10:31:17;;;;;;;4.60;4.30;;;;;;;;;;4973278;28;20026;-63
2021/07/31 10:33:44;;;;;;;4.05;3.85;;;;;;;;;;4971094;28;20035;-62
2021/07/31 10:36:29;;;;;;;4.20;3.90;;;;;;;;;;4972968;28;20027;-64
2021/07/31 10:38:55;;;;;;;4.90;4.60;;;;;;;;;;4967582;28;20035;-63
2021/07/31 10:41:39;;;;;;;5.55;5.15;;;;;;;;;;4972372;28;20132;-63
2021/07/31 10:44:08;;;;;;;5.47;5.07;;;;;;;;;;4970827;28;20402;-63
2021/07/31 10:46:34;;;;;;;4.43;4.13;;;;;;;;;;4973001;28;20078;-63
2021/07/31 10:49:19;;;;;;;4.97;4.55;;;;;;;;;;4970580;28;20022;-63
2021/07/31 10:51:44;;;;;;;4.65;4.35;;;;;;;;;;4971439;28;20034;-63
2021/07/31 10:54:10;;;;;;;5.45;4.95;;;;;;;;;;4969020;28;20620;-64
2021/07/31 10:56:54;;;;;;;4.45;4.15;;;;;;;;;;4972126;28;20283;-63
2021/07/31 10:59:19;;;;;;;4.75;4.32;;;;;;;;;;4971060;28;20034;-63
2021/07/31 11:01:45;;;;;;;4.60;4.30;;;;;;;;;;4972474;28;20453;-63
2021/07/31 11:04:30;;;;;;;4.60;4.30;;;;;;;;;;4970564;28;20031;-64
2021/07/31 11:07:11;;;;;;;4.82;4.43;;;;;;;;;;4972505;28;20395;-63
2021/07/31 11:09:36;;;;;;;4.70;4.40;;;;;;;;;;4970557;28;20451;-63
2021/07/31 11:12:20;;;;;;;4.70;4.30;;;;;;;;;;4972454;28;20495;-63
2021/07/31 11:15:05;;;;;;;4.13;3.83;;;;;;;;;;4969889;28;20211;-63
2021/07/31 11:17:30;;;;;;;4.90;4.50;;;;;;;;;;4971306;28;20392;-63
2021/07/31 11:19:55;;;;;;;6.32;4.40;;;;;;;;;;4969847;28;20031;-63
2021/07/31 11:22:21;;;;;;;4.07;3.78;;;;;;;;;;4971584;28;20050;-64
2021/07/31 11:24:46;;;;;;;4.22;3.92;;;;;;;;;;4970638;28;20542;-64
2021/07/31 11:27:11;;;;;;;3.80;3.60;;;;;;;;;;4972246;28;20054;-63
2021/07/31 11:29:37;;;;;;;4.10;3.80;;;;;;;;;;4970560;28;20054;-63
2021/07/31 11:32:04;;;;;;;3.75;3.55;;;;;;;;;;4972042;28;20026;-63
2021/07/31 11:34:39;;;;;;;4.70;4.40;;;;;;;;;;4971502;28;20070;-63
2021/07/31 11:37:04;;;;;;;3.72;3.53;;;;;;;;;;4971875;28;20066;-63
2021/07/31 11:39:30;;;;;;;4.60;4.30;;;;;;;;;;4973652;28;20027;-63
2021/07/31 11:41:59;;;;;;;4.47;4.20;;;;;;;;;;4974663;28;20041;-63
2021/07/31 11:44:28;;;;;;;3.95;3.75;;;;;;;;;;4975709;28;20237;-63
2021/07/31 11:46:53;;;;;;;5.40;5.10;;;;;;;;;;4975389;28;20026;-63
2021/07/31 11:49:28;;;;;;;4.28;4.05;;;;;;;;;;4975550;28;20030;-63
2021/07/31 11:51:54;;;;;;;4.65;4.35;;;;;;;;;;4974827;28;20046;-62
2021/07/31 11:54:20;;;;;;;4.57;4.28;;;;;;;;;;4975733;28;20357;-62
2021/07/31 11:56:48;;;;;;;4.97;4.53;;;;;;;;;;4973552;28;20043;-62
2021/07/31 11:59:22;;;;;;;4.35;3.92;;;;;;;;;;4975237;28;20097;-62
2021/07/31 12:01:48;;;;;;;4.88;4.45;;;;;;;;;;4974371;28;20018;-62
2021/07/31 12:04:13;;;;;;;4.15;3.85;;;;;;;;;;4975271;28;20035;-62
2021/07/31 12:06:45;;;;;;;4.78;4.38;;;;;;;;;;4972113;28;20451;-62
2021/07/31 12:09:20;;;;;;;4.30;3.97;;;;;;;;;;4975274;28;20384;-62
2021/07/31 12:11:45;;;;;;;4.97;4.68;;;;;;;;;;4971223;28;20029;-62
2021/07/31 12:14:26;;;;;;;4.43;4.13;;;;;;;;;;4973888;28;20031;-62
2021/07/31 12:16:52;;;;;;;4.88;4.57;;;;;;;;;;4972137;28;20065;-62
2021/07/31 12:19:17;;;;;;;4.82;4.53;;;;;;;;;;4973067;28;20110;-62
2021/07/31 12:21:42;;;;;;;5.72;4.25;;;;;;;;;;4970333;28;20618;-62
2021/07/31 12:24:17;;;;;;;3.67;3.45;;;;;;;;;;4973336;28;20047;-62
2021/07/31 12:26:50;;;;;;;4.78;4.47;;;;;;;;;;4970952;28;20081;-62
2021/07/31 12:29:32;;;;;;;4.47;4.18;;;;;;;;;;4974720;28;20022;-62
2021/07/31 12:32:16;;;;;;;5.25;4.40;;;;;;;;;;4972169;28;20019;-62
2021/07/31 12:34:41;;;;;;;4.60;4.20;;;;;;;;;;4974239;28;20285;-62
2021/07/31 12:37:06;;;;;;;5.18;4.18;;;;;;;;;;4971991;28;20023;-62
2021/07/31 12:39:31;;;;;;;4.90;4.60;;;;;;;;;;4971982;28;20023;-62
2021/07/31 12:41:56;;;;;;;4.68;4.38;;;;;;;;;;4972612;28;20011;-62
2021/07/31 12:44:22;;;;;;;5.05;4.75;;;;;;;;;;4972916;28;20038;-63
2021/07/31 12:46:47;;;;;;;5.05;4.32;;;;;;;;;;4973726;28;20021;-62
2021/07/31 12:49:12;;;;;;;5.00;4.70;;;;;;;;;;4969203;28;20436;-62
2021/07/31 12:51:37;;;;;;;4.82;4.53;;;;;;;;;;4972023;28;20593;-62
2021/07/31 12:54:03;;;;;;;4.75;4.45;;;;;;;;;;4972853;28;20061;-62
2021/07/31 12:56:28;;;;;;;5.03;4.63;;;;;;;;;;4971185;28;20035;-63
2021/07/31 12:58:53;;;;;;;5.03;4.65;;;;;;;;;;4973030;28;20041;-62
2021/07/31 13:01:18;;;;;;;5.43;5.07;;;;;;;;;;4973037;28;20300;-63
2021/07/31 13:03:46;;;;;;;4.53;4.13;;;;;;;;;;4973110;28;20276;-62
2021/07/31 13:06:11;;;;;;;5.50;4.88;;;;;;;;;;4973225;28;20021;-62
2021/07/31 13:08:36;;;;;;;4.50;4.20;;;;;;;;;;4972136;28;20609;-62
2021/07/31 13:11:02;;;;;;;4.57;4.18;;;;;;;;;;4971226;28;20020;-62
2021/07/31 13:13:27;;;;;;;4.85;4.55;;;;;;;;;;4972545;28;20037;-62
2021/07/31 13:15:52;;;;;;;5.25;4.85;;;;;;;;;;4972702;28;20222;-63
2021/07/31 13:18:21;;;;;;;4.72;4.43;;;;;;;;;;4972183;28;20038;-64
2021/07/31 13:20:47;;;;;;;4.95;4.65;;;;;;;;;;4974726;28;20033;-63
2021/07/31 13:23:12;;;;;;;5.40;5.05;;;;;;;;;;4972077;28;20296;-63
2021/07/31 13:25:38;;;;;;;5.45;5.10;;;;;;;;;;4972559;28;20027;-63
2021/07/31 13:28:04;;;;;;;5.30;5.00;;;;;;;;;;4971092;28;20035;-62
2021/07/31 13:30:29;;;;;;;5.78;5.38;;;;;;;;;;4971920;28;20030;-62
2021/07/31 13:32:56;;;;;;;5.50;5.10;;;;;;;;;;4973011;28;20081;-63
2021/07/31 13:35:21;;;;;;;6.20;5.70;;;;;;;;;;4972142;28;20030;-63
2021/07/31 13:37:50;;;;;;;5.35;5.05;;;;;;;;;;4972595;28;20026;-63
2021/07/31 13:40:16;;;;;;;5.97;5.57;;;;;;;;;;4972699;28;20023;-63
2021/07/31 13:42:43;;;;;;;5.20;4.90;;;;;;;;;;4972540;28;20018;-63
2021/07/31 13:45:08;;;;;;;6.03;5.65;;;;;;;;;;4971493;28;20023;-63
2021/07/31 13:47:36;;;;;;;5.35;5.05;;;;;;;;;;4970922;28;20029;-62
2021/07/31 13:50:01;;;;;;;5.20;4.80;;;;;;;;;;4970329;28;20015;-62
2021/07/31 13:52:26;;;;;;;5.78;5.28;;;;;;;;;;4971682;28;20015;-63
2021/07/31 13:54:52;;;;;;;5.25;4.85;;;;;;;;;;4971399;28;20420;-63
2021/07/31 13:57:17;;;;;;;5.85;5.55;;;;;;;;;;4971035;28;20459;-62
2021/07/31 13:59:42;;;;;;;5.95;5.55;;;;;;;;;;4971176;28;20387;-63
2021/07/31 14:02:09;;;;;;;5.60;5.30;;;;;;;;;;4970576;28;20045;-63
2021/07/31 14:04:34;;;;;;;5.18;4.88;;;;;;;;;;4971447;28;20111;-62
2021/07/31 14:06:59;;;;;;;5.43;5.13;;;;;;;;;;4972280;28;20102;-62
2021/07/31 14:09:24;;;;;;;6.40;5.88;;;;;;;;;;4972579;28;20027;-63
2021/07/31 14:11:50;;;;;;;5.53;5.22;;;;;;;;;;4971383;28;20042;-63
2021/07/31 14:14:15;;;;;;;6.43;5.90;;;;;;;;;;4972291;28;20191;-62
2021/07/31 14:16:42;;;;;;;6.50;6.10;;;;;;;;;;4971614;28;20026;-63
2021/07/31 14:19:07;;;;;;;5.03;4.72;;;;;;;;;;4971177;28;20069;-63
2021/07/31 14:21:32;;;;;;;5.85;5.03;;;;;;;;;;4971341;28;20019;-63
2021/07/31 14:23:58;;;;;;;5.40;5.10;;;;;;;;;;4971289;28;20647;-63
2021/07/31 14:26:23;;;;;;;5.32;5.03;;;;;;;;;;4971858;28;20097;-63
2021/07/31 14:28:48;;;;;;;5.18;4.88;;;;;;;;;;4972130;28;20439;-63
2021/07/31 14:31:13;;;;;;;6.15;5.78;;;;;;;;;;4971611;28;20030;-63
2021/07/31 14:33:39;;;;;;;5.60;5.30;;;;;;;;;;4972003;28;20454;-63
2021/07/31 14:36:04;;;;;;;6.18;5.78;;;;;;;;;;4971488;28;20213;-63
2021/07/31 14:38:29;;;;;;;5.75;5.45;;;;;;;;;;4971921;28;20050;-63